Terminal Aerodrome Forecast
Issued by NWS

Home | Current Version | Previous Version | Text Only | Print | Product List | Glossary On
Versions: 1 2 3 4 5 6 7 8 9 10 11 12
000
FTUS44 KEPZ 250548
TAFTCS
TAF
KTCS 250548Z 2506/2606 23010KT P6SM FEW150 SCT250
     FM251200 24015G25KT P6SM FEW150 BKN250
     FM251600 27025G35KT P6SM BKN250=

USA.gov is the U.S. government's official web portal to all federal, state and local government web resources and services.